createdAt,value
2017-06-26T00:01:02.366Z,0
2017-06-26T00:05:58.864Z,0
2017-06-26T00:10:54.143Z,0
2017-06-26T00:15:51.153Z,0
2017-06-26T00:20:47.654Z,0
2017-06-26T00:25:44.363Z,0
2017-06-26T00:30:40.052Z,0
2017-06-26T00:35:35.981Z,0
2017-06-26T00:40:31.642Z,0
2017-06-26T00:45:28.822Z,0
2017-06-26T00:50:24.518Z,0
2017-06-26T00:55:21.334Z,0
2017-06-26T01:00:16.653Z,0
2017-06-26T01:05:12.699Z,0
2017-06-26T01:10:08.435Z,0
2017-06-26T01:15:05.537Z,0
2017-06-26T01:20:01.028Z,0
2017-06-26T01:24:56.888Z,0
2017-06-26T01:29:53.826Z,0
2017-06-26T01:34:50.126Z,0
2017-06-26T01:39:46.449Z,0
2017-06-26T01:44:42.454Z,0
2017-06-26T01:49:38.160Z,0
2017-06-26T01:54:34.243Z,0
2017-06-26T01:59:30.145Z,0
2017-06-26T02:04:26.109Z,0
2017-06-26T02:09:22.080Z,0
2017-06-26T02:14:18.326Z,0
2017-06-26T02:19:14.163Z,0
2017-06-26T02:24:09.968Z,0
2017-06-26T02:29:05.758Z,0
2017-06-26T02:34:01.680Z,4
2017-06-26T02:38:58.623Z,4
2017-06-26T02:43:54.220Z,4
2017-06-26T02:48:49.827Z,4
2017-06-26T02:53:45.647Z,4
2017-06-26T02:58:41.488Z,8
2017-06-26T03:03:38.667Z,8
2017-06-26T03:08:35.169Z,24
2017-06-26T03:13:31.010Z,28
2017-06-26T03:18:27.081Z,52
2017-06-26T03:23:22.822Z,72
2017-06-26T03:28:18.692Z,96
2017-06-26T03:33:14.506Z,92
2017-06-26T03:38:10.845Z,168
2017-06-26T03:43:06.650Z,112
2017-06-26T03:48:02.697Z,164
2017-06-26T03:52:58.531Z,212
2017-06-26T03:57:54.263Z,268
2017-06-26T04:02:50.669Z,388
2017-06-26T04:07:47.020Z,540
2017-06-26T04:12:43.032Z,648
2017-06-26T04:17:38.777Z,952
2017-06-26T04:22:34.686Z,1484
2017-06-26T04:32:30.274Z,1188
2017-06-26T04:37:26.206Z,1408
2017-06-26T04:42:21.935Z,1572
2017-06-26T04:47:18.037Z,2064
2017-06-26T04:52:13.994Z,2988
2017-06-26T04:57:10.908Z,3240
2017-06-26T05:02:06.609Z,2776
2017-06-26T05:07:03.012Z,3028
2017-06-26T05:12:00.094Z,3476
2017-06-26T05:16:55.679Z,3480
2017-06-26T05:21:51.500Z,3916
2017-06-26T05:26:48.694Z,2596
2017-06-26T05:31:44.563Z,13812
2017-06-26T05:36:40.772Z,6120
2017-06-26T05:41:39.406Z,4748
2017-06-26T05:46:35.756Z,3264
2017-06-26T05:51:31.316Z,7996
2017-06-26T05:56:27.691Z,3796
2017-06-26T06:01:23.558Z,6464
2017-06-26T06:06:19.443Z,6300
2017-06-26T06:11:16.711Z,8044
2017-06-26T06:16:12.589Z,9748
2017-06-26T06:21:08.599Z,10436
2017-06-26T06:26:06.037Z,9856
2017-06-26T06:31:01.748Z,6568
2017-06-26T06:35:58.574Z,8700
2017-06-26T06:40:55.007Z,4044
2017-06-26T06:45:50.591Z,5076
2017-06-26T06:50:46.177Z,7732
2017-06-26T06:55:42.110Z,6816
2017-06-26T07:00:39.099Z,5868
2017-06-26T07:05:34.913Z,5248
2017-06-26T07:10:30.748Z,3260
2017-06-26T07:15:26.696Z,2716
2017-06-26T07:20:22.617Z,8356
2017-06-26T07:25:19.044Z,13752
2017-06-26T07:30:15.658Z,13052
2017-06-26T07:35:12.055Z,15404
2017-06-26T07:40:08.989Z,10176
2017-06-26T07:45:05.305Z,9260
2017-06-26T07:50:01.107Z,9356
2017-06-26T07:54:56.957Z,18048
2017-06-26T07:59:54.866Z,36640
2017-06-26T08:04:51.805Z,15044
2017-06-26T08:09:48.453Z,9940
2017-06-26T08:14:45.301Z,27968
2017-06-26T08:19:42.458Z,19808
2017-06-26T08:24:38.562Z,11456
2017-06-26T08:29:35.620Z,17376
2017-06-26T08:34:32.138Z,53248
2017-06-26T08:39:30.129Z,47584
2017-06-26T08:44:27.658Z,67200
2017-06-26T08:49:23.952Z,76512
2017-06-26T08:54:20.062Z,70432
2017-06-26T08:59:17.059Z,76000
2017-06-26T09:04:13.490Z,79296
2017-06-26T09:09:10.050Z,4968
2017-06-26T09:14:03.787Z,88096
2017-06-26T09:19:01.952Z,20960
2017-06-26T09:23:57.546Z,56608
2017-06-26T09:28:55.735Z,95744
2017-06-26T09:33:53.755Z,82400
2017-06-26T09:38:52.066Z,9488
2017-06-26T09:43:45.371Z,10956
2017-06-26T09:48:41.923Z,104640
2017-06-26T09:53:40.828Z,107616
2017-06-26T09:58:37.948Z,92448
2017-06-26T10:03:34.507Z,89216
2017-06-26T10:08:30.561Z,10344
2017-06-26T10:13:26.489Z,97984
2017-06-26T10:18:21.378Z,27040
2017-06-26T10:23:17.521Z,17056
2017-06-26T10:28:12.811Z,63648
2017-06-26T10:33:08.206Z,7308
2017-06-26T10:38:04.867Z,79584
2017-06-26T10:43:01.647Z,77376
2017-06-26T10:47:59.021Z,81664
2017-06-26T10:52:54.945Z,8568
2017-06-26T10:57:49.214Z,64768
2017-06-26T11:02:46.542Z,77760
2017-06-26T11:07:44.462Z,72384
2017-06-26T11:12:42.927Z,9164
2017-06-26T11:17:38.674Z,90048
2017-06-26T11:22:38.597Z,106912
2017-06-26T11:27:37.214Z,43872
2017-06-26T11:32:33.331Z,11248
2017-06-26T11:37:30.943Z,10352
2017-06-26T11:42:23.795Z,125984
2017-06-26T11:47:23.519Z,121760
2017-06-26T11:52:20.522Z,105952
2017-06-26T11:57:13.754Z,11896
2017-06-26T12:02:06.919Z,11972
2017-06-26T12:07:04.083Z,108640
2017-06-26T12:12:05.011Z,31008
2017-06-26T12:16:56.696Z,70784
2017-06-26T12:21:57.895Z,58432
2017-06-26T12:26:52.490Z,19168
2017-06-26T12:31:45.524Z,9832
2017-06-26T12:36:42.472Z,107744
2017-06-26T12:41:38.484Z,101504
2017-06-26T12:46:35.849Z,88800
2017-06-26T12:51:32.573Z,68416
2017-06-26T12:56:28.864Z,56960
2017-06-26T13:01:25.799Z,89312
2017-06-26T13:06:21.801Z,105664
2017-06-26T13:11:18.123Z,124416
2017-06-26T13:16:14.023Z,112256
2017-06-26T13:21:09.929Z,88288
2017-06-26T13:26:05.090Z,56000
2017-06-26T13:30:58.989Z,6292
2017-06-26T13:35:52.954Z,106016
2017-06-26T13:40:48.514Z,83008
2017-06-26T13:45:45.847Z,13520
2017-06-26T13:50:42.033Z,28288
2017-06-26T13:55:37.067Z,77696
2017-06-26T14:00:32.993Z,22400
2017-06-26T14:05:28.548Z,7576
2017-06-26T14:10:23.877Z,7812
2017-06-26T14:15:20.375Z,9176
2017-06-26T14:20:16.087Z,6492
2017-06-26T14:25:11.483Z,5012
2017-06-26T14:30:06.863Z,5628
2017-06-26T14:35:03.201Z,5844
2017-06-26T14:39:58.373Z,4660
2017-06-26T14:44:53.894Z,3764
2017-06-26T14:49:49.988Z,4056
2017-06-26T14:54:45.647Z,5996
2017-06-26T14:59:42.046Z,6884
2017-06-26T15:04:38.877Z,3856
2017-06-26T15:09:35.575Z,3272
2017-06-26T15:14:31.276Z,4276
2017-06-26T15:19:26.859Z,4504
2017-06-26T15:24:22.711Z,4240
2017-06-26T15:29:18.593Z,4120
2017-06-26T15:34:14.646Z,2756
2017-06-26T15:39:10.346Z,2732
2017-06-26T15:44:06.149Z,3424
2017-06-26T15:49:02.154Z,2384
2017-06-26T15:53:58.047Z,2700
2017-06-26T15:58:54.980Z,2592
2017-06-26T16:03:51.543Z,3160
2017-06-26T16:08:48.366Z,3568
2017-06-26T16:13:44.786Z,2440
2017-06-26T16:18:40.574Z,2204
2017-06-26T16:23:36.445Z,2052
2017-06-26T16:28:32.070Z,2020
2017-06-26T16:33:27.931Z,1964
2017-06-26T16:38:23.830Z,1948
2017-06-26T16:43:21.373Z,1796
2017-06-26T16:48:17.908Z,1900
2017-06-26T16:53:13.730Z,1872
2017-06-26T16:58:09.852Z,1912
2017-06-26T17:03:05.489Z,1832
2017-06-26T17:08:01.059Z,1816
2017-06-26T17:12:58.034Z,1796
2017-06-26T17:17:56.069Z,1756
2017-06-26T17:22:52.398Z,1736
2017-06-26T17:27:49.274Z,1708
2017-06-26T17:32:45.954Z,1676
2017-06-26T17:37:41.377Z,1640
2017-06-26T17:42:37.353Z,1608
2017-06-26T17:47:33.462Z,1584
2017-06-26T17:52:30.322Z,1584
2017-06-26T17:57:26.394Z,1528
2017-06-26T18:02:22.140Z,1492
2017-06-26T18:07:18.005Z,1448
2017-06-26T18:12:14.862Z,1416
2017-06-26T18:17:12.506Z,1364
2017-06-26T18:22:07.677Z,1340
2017-06-26T18:27:04.416Z,1280
2017-06-26T18:32:00.046Z,1244
2017-06-26T18:36:57.023Z,1188
2017-06-26T18:41:53.904Z,1124
2017-06-26T18:46:49.588Z,1060
2017-06-26T18:51:47.471Z,1000
2017-06-26T18:56:42.927Z,936
2017-06-26T19:01:38.719Z,868
2017-06-26T19:06:34.472Z,800
2017-06-26T19:11:30.444Z,724
2017-06-26T19:21:27.617Z,572
2017-06-26T19:26:23.124Z,496
2017-06-26T19:31:18.662Z,416
2017-06-26T19:36:14.516Z,340
2017-06-26T19:41:11.318Z,268
2017-06-26T19:46:07.437Z,208
2017-06-26T19:51:04.384Z,152
2017-06-26T19:56:00.701Z,104
2017-06-26T20:00:57.002Z,68
2017-06-26T20:05:52.451Z,40
2017-06-26T20:10:48.648Z,24
2017-06-26T20:15:45.297Z,16
2017-06-26T20:20:41.387Z,8
2017-06-26T20:25:37.415Z,8
2017-06-26T20:30:34.052Z,4
2017-06-26T20:35:29.972Z,0
2017-06-26T20:40:26.140Z,0
2017-06-26T20:45:23.102Z,0
2017-06-26T20:50:18.717Z,0
2017-06-26T20:55:14.611Z,0
2017-06-26T21:00:10.227Z,0
2017-06-26T21:05:07.311Z,0
2017-06-26T21:10:03.344Z,0
2017-06-26T21:15:00.302Z,0
2017-06-26T21:19:56.793Z,0
2017-06-26T21:24:52.323Z,0
2017-06-26T21:29:48.183Z,0
2017-06-26T21:34:45.942Z,0
2017-06-26T21:39:41.933Z,0
2017-06-26T21:44:38.442Z,0
2017-06-26T21:49:33.760Z,0
2017-06-26T21:54:29.679Z,0
2017-06-26T21:59:25.692Z,0
2017-06-26T22:04:21.514Z,0
2017-06-26T22:09:17.106Z,0
2017-06-26T22:14:15.249Z,0
2017-06-26T22:19:10.561Z,0
2017-06-26T22:24:07.351Z,0
2017-06-26T22:29:03.910Z,0
2017-06-26T22:34:00.235Z,0
2017-06-26T22:38:57.829Z,0
2017-06-26T22:43:53.389Z,0
2017-06-26T22:48:50.442Z,0
2017-06-26T22:53:45.996Z,0
2017-06-26T22:58:41.908Z,0
2017-06-26T23:03:38.063Z,0
2017-06-26T23:08:34.030Z,0
2017-06-26T23:13:29.825Z,0
2017-06-26T23:18:30.435Z,0
2017-06-26T23:23:27.438Z,0
2017-06-26T23:28:24.667Z,0
2017-06-26T23:33:19.765Z,0
2017-06-26T23:38:15.688Z,0
2017-06-26T23:43:12.748Z,0
2017-06-26T23:48:08.470Z,0
2017-06-26T23:53:04.616Z,0
2017-06-26T23:58:00.389Z,0
